createdAt,value
2022-08-12T00:00:29.585Z,74.01
2022-08-12T00:02:02.965Z,74.13
2022-08-12T00:03:00.801Z,74.19
2022-08-12T00:04:06.616Z,73.50
2022-08-12T00:05:12.348Z,73.49
2022-08-12T00:06:17.944Z,73.21
2022-08-12T00:07:23.516Z,72.97
2022-08-12T00:08:35.684Z,73.39
2022-08-12T00:09:42.596Z,73.74
2022-08-12T00:10:48.226Z,73.98
2022-08-12T00:11:53.975Z,73.79
2022-08-12T00:12:59.675Z,73.40
2022-08-12T00:14:05.546Z,73.39
2022-08-12T00:15:11.195Z,73.42
2022-08-12T00:16:17.174Z,73.72
2022-08-12T00:17:23.450Z,73.64
2022-08-12T00:18:28.875Z,74.18
2022-08-12T00:19:34.593Z,73.99
2022-08-12T00:20:40.065Z,74.14
2022-08-12T00:21:45.780Z,74.17
2022-08-12T00:22:58.969Z,74.34
2022-08-12T00:24:05.285Z,74.46
2022-08-12T00:25:17.435Z,74.85
2022-08-12T00:26:24.617Z,74.51
2022-08-12T00:27:43.311Z,74.46
2022-08-12T00:28:50.166Z,74.87
2022-08-12T00:29:56.584Z,75.28
2022-08-12T00:31:02.156Z,75.08
2022-08-12T00:32:07.514Z,75.24
2022-08-12T00:33:17.715Z,75.35
2022-08-12T00:34:23.405Z,75.14
2022-08-12T00:35:36.880Z,75.77
2022-08-12T00:36:46.776Z,76.00
2022-08-12T00:37:56.425Z,75.44
2022-08-12T00:39:02.175Z,75.71
2022-08-12T00:40:10.820Z,75.89
2022-08-12T00:41:17.905Z,75.75
2022-08-12T00:42:10.827Z,75.25
2022-08-12T00:42:58.307Z,74.91
2022-08-12T00:43:46.395Z,74.82
2022-08-12T00:44:33.216Z,74.67
2022-08-12T00:45:21.050Z,74.71
2022-08-12T00:46:26.016Z,74.61
2022-08-12T00:47:24.669Z,74.60
2022-08-12T00:48:12.665Z,75.04
2022-08-12T00:48:59.974Z,75.91
2022-08-12T00:49:50.285Z,75.18
2022-08-12T00:50:37.216Z,74.98
2022-08-12T00:51:45.285Z,75.00
2022-08-12T00:52:34.370Z,74.83
2022-08-12T00:53:22.446Z,74.36
2022-08-12T00:54:09.525Z,74.66
2022-08-12T00:54:59.195Z,74.52
2022-08-12T00:55:47.154Z,74.63
2022-08-12T00:56:34.186Z,74.33
2022-08-12T00:57:23.810Z,74.17
2022-08-12T00:58:11.275Z,74.05
2022-08-12T00:58:59.855Z,73.96
2022-08-12T00:59:51.442Z,73.83
2022-08-12T01:00:39.745Z,73.78
2022-08-12T01:01:27.039Z,73.61
2022-08-12T01:02:36.437Z,73.99
2022-08-12T01:03:23.605Z,73.06
2022-08-12T01:04:29.376Z,73.34
2022-08-12T01:05:37.720Z,73.47
2022-08-12T01:06:43.265Z,72.84
2022-08-12T01:07:48.744Z,72.57
2022-08-12T01:08:54.385Z,72.60
2022-08-12T01:10:00.006Z,72.64
2022-08-12T01:11:06.635Z,72.83
2022-08-12T01:11:54.064Z,72.91
2022-08-12T01:12:42.426Z,72.57
2022-08-12T01:13:31.284Z,72.47
2022-08-12T01:14:21.225Z,72.59
2022-08-12T01:15:08.934Z,72.45
2022-08-12T01:15:59.245Z,72.75
2022-08-12T01:16:48.224Z,72.64
2022-08-12T01:17:36.943Z,72.34
2022-08-12T01:18:26.714Z,72.61
2022-08-12T01:19:13.754Z,72.36
2022-08-12T01:20:06.375Z,72.52
2022-08-12T01:20:53.173Z,72.67
2022-08-12T01:22:04.024Z,72.35
2022-08-12T01:22:55.556Z,72.22
2022-08-12T01:24:30.425Z,72.24
2022-08-12T01:25:19.845Z,71.07
2022-08-12T01:26:08.714Z,71.18
2022-08-12T01:26:56.725Z,69.91
2022-08-12T01:27:44.746Z,70.94
2022-08-12T01:28:32.094Z,70.18
2022-08-12T01:29:28.563Z,71.43
2022-08-12T01:30:19.405Z,71.27
2022-08-12T01:31:06.634Z,70.76
2022-08-12T01:31:57.666Z,70.47
2022-08-12T01:32:47.727Z,70.33
2022-08-12T01:33:59.866Z,70.37
2022-08-12T01:34:56.344Z,70.25
2022-08-12T01:35:57.854Z,70.72
2022-08-12T01:37:00.764Z,70.79
2022-08-12T01:37:58.865Z,70.54
2022-08-12T01:38:48.314Z,70.97
2022-08-12T01:40:33.181Z,71.20
2022-08-12T01:40:49.388Z,72.25
2022-08-12T01:41:50.455Z,71.18
2022-08-12T01:42:46.864Z,71.54
2022-08-12T01:43:34.365Z,71.73
2022-08-12T01:44:22.655Z,70.67
2022-08-12T01:45:12.594Z,70.03
2022-08-12T01:46:39.224Z,68.92
2022-08-12T01:47:43.332Z,68.69
2022-08-12T01:48:52.654Z,68.28
2022-08-12T01:50:01.964Z,69.09
2022-08-12T01:52:07.505Z,68.60
2022-08-12T01:52:49.554Z,68.54
2022-08-12T01:54:04.749Z,67.89
2022-08-12T01:54:52.085Z,68.58
2022-08-12T01:55:42.174Z,66.50
2022-08-12T01:56:41.994Z,66.70
2022-08-12T01:57:59.733Z,67.40
2022-08-12T01:59:07.385Z,66.82
2022-08-12T02:00:06.579Z,67.03
2022-08-12T02:01:00.546Z,67.37
2022-08-12T02:01:50.832Z,67.88
2022-08-12T02:02:47.759Z,67.70
2022-08-12T02:03:53.144Z,67.82
2022-08-12T02:05:07.508Z,68.00
2022-08-12T02:06:27.775Z,67.33
2022-08-12T02:07:39.544Z,67.61
2022-08-12T02:09:11.094Z,66.85
2022-08-12T02:10:50.497Z,66.95
2022-08-12T02:11:36.626Z,66.69
2022-08-12T02:12:49.621Z,66.49
2022-08-12T02:14:14.095Z,66.71
2022-08-12T02:15:13.231Z,66.76
2022-08-12T02:16:08.094Z,66.82
2022-08-12T02:17:19.924Z,67.14
2022-08-12T02:18:26.819Z,68.12
2022-08-12T02:19:45.305Z,67.97
2022-08-12T02:20:52.254Z,68.19
2022-08-12T02:21:46.665Z,68.82
2022-08-12T02:22:42.471Z,68.57
2022-08-12T02:23:29.555Z,68.38
2022-08-12T02:24:20.774Z,68.32
2022-08-12T02:25:33.945Z,68.58
2022-08-12T02:26:21.034Z,69.43
2022-08-12T02:27:09.620Z,68.80
2022-08-12T02:27:56.973Z,68.56
2022-08-12T02:28:43.983Z,68.33
2022-08-12T02:29:31.156Z,68.42
2022-08-12T02:30:22.206Z,68.57
2022-08-12T02:31:09.674Z,68.33
2022-08-12T02:31:57.583Z,68.54
2022-08-12T02:32:46.284Z,68.56
2022-08-12T02:33:33.744Z,68.87
2022-08-12T02:34:22.094Z,68.88
2022-08-12T02:35:24.094Z,68.89
2022-08-12T02:36:10.985Z,69.10
2022-08-12T02:37:02.519Z,69.05
2022-08-12T02:37:54.316Z,68.75
2022-08-12T02:38:43.463Z,68.83
2022-08-12T02:39:34.710Z,68.90
2022-08-12T02:40:23.183Z,69.39
2022-08-12T02:41:12.234Z,69.60
2022-08-12T02:42:01.244Z,69.41
2022-08-12T02:42:54.114Z,69.51
2022-08-12T02:43:46.896Z,69.81
2022-08-12T02:44:38.416Z,70.30
2022-08-12T02:45:38.231Z,70.63
2022-08-12T02:46:32.991Z,70.74
2022-08-12T02:47:59.204Z,70.91
2022-08-12T02:48:31.883Z,71.05
2022-08-12T02:49:27.928Z,71.18
2022-08-12T02:50:16.384Z,71.17
2022-08-12T02:51:13.287Z,71.41
2022-08-12T02:52:00.513Z,71.62
2022-08-12T02:52:47.843Z,71.46
2022-08-12T02:53:36.813Z,71.55
2022-08-12T02:54:23.641Z,71.58
2022-08-12T02:55:28.641Z,71.63
2022-08-12T02:56:21.604Z,71.86
2022-08-12T02:57:08.483Z,72.36
2022-08-12T02:57:56.054Z,72.42
2022-08-12T02:58:45.285Z,72.50
2022-08-12T02:59:34.784Z,72.75
2022-08-12T03:00:22.064Z,73.04
2022-08-12T03:01:11.828Z,73.14
2022-08-12T03:02:06.138Z,72.79
2022-08-12T03:02:53.124Z,72.87
2022-08-12T03:03:41.543Z,72.83
2022-08-12T03:04:40.180Z,72.76
2022-08-12T03:05:33.244Z,72.72
2022-08-12T03:07:01.404Z,72.44
2022-08-12T03:07:59.813Z,72.54
2022-08-12T03:08:51.851Z,72.92
2022-08-12T03:10:04.631Z,72.93
2022-08-12T03:10:55.194Z,73.05
2022-08-12T03:12:06.344Z,73.09
2022-08-12T03:12:57.743Z,73.69
2022-08-12T03:13:54.646Z,74.38
2022-08-12T03:14:45.984Z,74.70
2022-08-12T03:15:33.304Z,75.10
2022-08-12T03:16:20.984Z,75.05
2022-08-12T03:17:11.853Z,74.77
2022-08-12T03:18:26.535Z,74.19
2022-08-12T03:19:15.364Z,74.49
2022-08-12T03:20:10.630Z,75.30
2022-08-12T03:21:01.922Z,75.10
2022-08-12T03:21:59.912Z,75.00
2022-08-12T03:22:56.444Z,75.17
2022-08-12T03:23:46.223Z,75.09
2022-08-12T03:24:33.683Z,75.20
2022-08-12T03:25:27.687Z,75.68
2022-08-12T03:26:15.094Z,76.07
2022-08-12T03:27:03.368Z,76.03
2022-08-12T03:27:51.886Z,75.93
2022-08-12T03:28:51.056Z,75.87
2022-08-12T03:29:43.270Z,75.83
2022-08-12T03:30:38.204Z,75.64
2022-08-12T03:31:35.253Z,75.73
2022-08-12T03:32:36.353Z,75.93
2022-08-12T03:33:24.071Z,75.87
2022-08-12T03:34:14.234Z,75.99
2022-08-12T03:35:02.392Z,76.54
2022-08-12T03:35:50.154Z,76.95
2022-08-12T03:36:39.693Z,77.08
2022-08-12T03:37:30.514Z,76.77
2022-08-12T03:38:18.673Z,76.74
2022-08-12T03:39:19.930Z,76.86
2022-08-12T03:40:46.234Z,76.79
2022-08-12T03:41:36.184Z,76.65
2022-08-12T03:42:51.981Z,76.57
2022-08-12T03:44:04.227Z,76.28
2022-08-12T03:45:18.504Z,76.27
2022-08-12T03:46:29.943Z,76.94
2022-08-12T03:47:41.868Z,77.00
2022-08-12T03:48:47.713Z,76.75
2022-08-12T03:49:53.993Z,76.27
2022-08-12T03:50:59.785Z,76.51
2022-08-12T03:52:05.354Z,76.71
2022-08-12T03:53:10.954Z,76.39
2022-08-12T03:54:16.735Z,76.42
2022-08-12T03:55:22.432Z,76.26
2022-08-12T03:56:28.163Z,76.79
2022-08-12T03:57:33.863Z,76.44
2022-08-12T03:58:39.880Z,76.78
2022-08-12T03:59:45.544Z,76.70
2022-08-12T04:00:33.566Z,76.97
2022-08-12T04:01:23.267Z,76.92
2022-08-12T04:02:15.413Z,76.67
2022-08-12T04:03:02.327Z,76.36
2022-08-12T04:03:53.081Z,75.99
2022-08-12T04:04:45.493Z,76.13
2022-08-12T04:05:56.204Z,76.17
2022-08-12T04:06:47.554Z,76.18
2022-08-12T04:07:34.544Z,75.92
2022-08-12T04:08:24.814Z,76.08
2022-08-12T04:09:16.080Z,76.46
2022-08-12T04:10:04.723Z,76.60
2022-08-12T04:11:10.225Z,76.78
2022-08-12T04:12:15.824Z,76.46
2022-08-12T04:13:19.967Z,76.08
2022-08-12T04:14:20.821Z,75.67
2022-08-12T04:15:11.124Z,75.56
2022-08-12T04:15:58.835Z,75.48
2022-08-12T04:16:46.323Z,75.63
2022-08-12T04:17:33.713Z,75.41
2022-08-12T04:18:21.254Z,75.47
2022-08-12T04:19:08.313Z,75.60
2022-08-12T04:19:56.814Z,75.44
2022-08-12T04:20:44.853Z,75.74
2022-08-12T04:21:35.043Z,75.90
2022-08-12T04:22:23.253Z,75.82
2022-08-12T04:23:16.815Z,75.95
2022-08-12T04:24:04.463Z,75.66
2022-08-12T04:24:54.027Z,75.34
2022-08-12T04:25:41.577Z,75.35
2022-08-12T04:26:29.187Z,75.45
2022-08-12T04:27:16.104Z,75.33
2022-08-12T04:28:12.996Z,75.10
2022-08-12T04:29:01.183Z,74.97
2022-08-12T04:30:29.581Z,74.75
2022-08-12T04:30:57.675Z,74.57
2022-08-12T04:31:44.513Z,74.07
2022-08-12T04:32:32.289Z,73.51
2022-08-12T04:33:19.766Z,73.10
2022-08-12T04:34:07.835Z,72.71
2022-08-12T04:34:55.404Z,72.59
2022-08-12T04:35:42.344Z,72.01
2022-08-12T04:36:30.345Z,71.45
2022-08-12T04:37:17.233Z,70.80
2022-08-12T04:38:05.455Z,70.20
2022-08-12T04:38:57.667Z,70.14
2022-08-12T04:39:46.672Z,69.88
2022-08-12T04:40:36.617Z,69.71
2022-08-12T04:41:24.304Z,69.25
2022-08-12T04:42:11.254Z,69.53
2022-08-12T04:42:58.865Z,68.96
2022-08-12T04:43:54.505Z,68.87
2022-08-12T04:44:49.439Z,68.60
2022-08-12T04:45:38.004Z,67.83
2022-08-12T04:46:30.607Z,67.53
2022-08-12T04:47:21.949Z,67.53
2022-08-12T04:48:08.982Z,67.45
2022-08-12T04:48:56.291Z,67.01
2022-08-12T04:49:45.222Z,66.89
2022-08-12T04:50:36.034Z,66.76
2022-08-12T04:51:24.944Z,66.33
2022-08-12T04:52:12.443Z,66.09
2022-08-12T04:53:00.925Z,65.11
2022-08-12T04:53:49.183Z,65.26
2022-08-12T04:54:36.398Z,65.83
2022-08-12T04:55:23.906Z,65.31
2022-08-12T04:56:13.449Z,65.59
2022-08-12T04:57:04.285Z,64.75
2022-08-12T04:57:51.963Z,64.53
2022-08-12T04:58:39.106Z,63.50
2022-08-12T04:59:25.924Z,61.02
2022-08-12T05:00:14.515Z,58.05
2022-08-12T05:01:01.424Z,54.19
2022-08-12T05:01:52.675Z,52.02
2022-08-12T05:02:40.433Z,49.36
2022-08-12T05:03:28.063Z,46.74
2022-08-12T05:04:16.252Z,46.43
2022-08-12T05:05:05.433Z,45.93
2022-08-12T05:05:52.557Z,47.07
2022-08-12T05:06:39.394Z,47.67
2022-08-12T05:07:26.615Z,48.51
2022-08-12T05:08:18.104Z,49.34
2022-08-12T05:09:11.137Z,49.73
2022-08-12T05:10:01.995Z,49.88
2022-08-12T05:10:49.423Z,49.03
2022-08-12T05:11:37.084Z,50.14
2022-08-12T05:12:46.931Z,50.54
2022-08-12T05:13:39.775Z,49.86
2022-08-12T05:14:26.734Z,49.60
2022-08-12T05:15:21.241Z,49.97
2022-08-12T05:16:16.305Z,49.98
2022-08-12T05:17:12.944Z,48.95
2022-08-12T05:18:02.188Z,48.71
2022-08-12T05:19:06.413Z,49.09
2022-08-12T05:20:06.393Z,48.54
2022-08-12T05:20:54.564Z,48.12
2022-08-12T05:21:41.363Z,47.39
2022-08-12T05:22:28.983Z,46.12
2022-08-12T05:23:20.633Z,46.04
2022-08-12T05:24:07.783Z,46.42
2022-08-12T05:24:54.884Z,47.03
2022-08-12T05:25:43.488Z,47.36
2022-08-12T05:26:30.522Z,47.21
2022-08-12T05:27:18.333Z,47.64
2022-08-12T05:28:08.324Z,48.09
2022-08-12T05:28:55.283Z,48.19
2022-08-12T05:30:07.787Z,48.65
2022-08-12T05:30:50.483Z,48.01
2022-08-12T05:31:42.494Z,48.07
2022-08-12T05:32:35.618Z,47.21
2022-08-12T05:33:35.863Z,45.58
2022-08-12T05:34:26.679Z,44.76
2022-08-12T05:35:15.903Z,44.02
2022-08-12T05:36:02.893Z,44.91
2022-08-12T05:36:49.772Z,45.17
2022-08-12T05:37:36.770Z,46.04
2022-08-12T05:38:42.139Z,46.57
2022-08-12T05:39:28.967Z,46.97
2022-08-12T05:40:16.522Z,47.90
2022-08-12T05:41:06.104Z,47.72
2022-08-12T05:41:53.724Z,48.45
2022-08-12T05:42:40.523Z,48.63
2022-08-12T05:43:27.704Z,49.53
2022-08-12T05:44:16.994Z,49.67
2022-08-12T05:45:04.333Z,50.03
2022-08-12T05:45:51.513Z,50.69
2022-08-12T05:46:38.605Z,50.86
2022-08-12T05:47:36.667Z,50.78
2022-08-12T05:48:32.743Z,51.48
2022-08-12T05:49:19.603Z,51.71
2022-08-12T05:50:06.875Z,52.46
2022-08-12T05:50:53.716Z,52.50
2022-08-12T05:51:41.846Z,51.89
2022-08-12T05:52:28.784Z,51.04
2022-08-12T05:53:15.883Z,51.50
2022-08-12T05:54:02.874Z,51.85
2022-08-12T05:54:57.402Z,50.23
2022-08-12T05:55:44.794Z,50.35
2022-08-12T05:56:34.946Z,50.86
2022-08-12T05:57:22.045Z,51.11
2022-08-12T05:58:09.083Z,51.20
2022-08-12T05:58:57.614Z,50.77
2022-08-12T05:59:44.473Z,50.89
2022-08-12T06:00:32.256Z,50.66
2022-08-12T06:02:09.313Z,51.14
2022-08-12T06:02:27.853Z,50.11
2022-08-12T06:03:19.691Z,51.51
2022-08-12T06:04:08.817Z,50.68
2022-08-12T06:05:00.495Z,50.96
2022-08-12T06:05:54.648Z,50.00
2022-08-12T06:06:42.485Z,50.19
2022-08-12T06:07:59.408Z,50.74
2022-08-12T06:08:36.448Z,50.82
2022-08-12T06:09:23.365Z,50.55
2022-08-12T06:10:10.399Z,50.91
2022-08-12T06:10:57.511Z,51.58
2022-08-12T06:12:05.247Z,50.79
2022-08-12T06:12:53.914Z,50.66
2022-08-12T06:13:53.796Z,49.94
2022-08-12T06:14:41.484Z,50.76
2022-08-12T06:15:28.807Z,51.11
2022-08-12T06:16:20.404Z,50.10
2022-08-12T06:17:09.286Z,49.46
2022-08-12T06:18:11.437Z,48.62
2022-08-12T06:19:01.645Z,48.26
2022-08-12T06:20:28.138Z,47.97
2022-08-12T06:21:01.511Z,48.17
2022-08-12T06:21:49.024Z,48.97
2022-08-12T06:22:35.831Z,48.62
2022-08-12T06:23:22.892Z,49.80
2022-08-12T06:24:14.365Z,49.13
2022-08-12T06:25:01.248Z,48.49
2022-08-12T06:25:48.048Z,47.73
2022-08-12T06:26:35.045Z,48.15
2022-08-12T06:27:21.984Z,46.34
2022-08-12T06:28:19.683Z,45.39
2022-08-12T06:29:06.746Z,46.21
2022-08-12T06:30:08.907Z,46.71
2022-08-12T06:31:24.893Z,47.45
2022-08-12T06:32:07.669Z,47.40
2022-08-12T06:33:18.750Z,47.90
2022-08-12T06:35:25.500Z,47.54
2022-08-12T06:35:26.731Z,48.03
2022-08-12T06:36:21.741Z,47.90
2022-08-12T06:37:10.344Z,47.38
2022-08-12T06:37:58.403Z,47.08
2022-08-12T06:38:46.313Z,46.98
2022-08-12T06:39:33.433Z,47.29
2022-08-12T06:40:38.984Z,46.63
2022-08-12T06:42:02.662Z,46.84
2022-08-12T06:42:54.354Z,46.93
2022-08-12T06:44:05.612Z,45.90
2022-08-12T06:44:50.730Z,44.83
2022-08-12T06:45:45.947Z,44.58
2022-08-12T06:46:33.443Z,44.72
2022-08-12T06:47:22.175Z,43.82
2022-08-12T06:48:09.724Z,43.54
2022-08-12T06:48:59.166Z,43.96
2022-08-12T06:49:46.335Z,43.74
2022-08-12T06:50:36.871Z,44.23
2022-08-12T06:51:28.607Z,44.63
2022-08-12T06:52:15.524Z,46.18
2022-08-12T06:53:04.633Z,45.02
2022-08-12T06:53:51.446Z,45.26
2022-08-12T06:54:38.304Z,45.34
2022-08-12T06:55:26.254Z,44.58
2022-08-12T06:56:13.325Z,44.22
2022-08-12T06:57:56.920Z,43.81
2022-08-12T06:58:10.524Z,43.95
2022-08-12T06:58:58.134Z,43.93
2022-08-12T06:59:45.136Z,44.23
2022-08-12T07:00:34.200Z,43.68
2022-08-12T07:01:21.190Z,44.36
2022-08-12T07:02:08.824Z,44.29
2022-08-12T07:02:56.045Z,44.53
2022-08-12T07:03:42.867Z,44.13
2022-08-12T07:04:38.224Z,44.24
2022-08-12T07:05:26.344Z,44.73
2022-08-12T07:06:13.907Z,44.68
2022-08-12T07:07:00.900Z,44.51
2022-08-12T07:07:48.034Z,44.15
2022-08-12T07:08:35.614Z,43.56
2022-08-12T07:10:04.004Z,43.47
2022-08-12T07:10:33.201Z,43.60
2022-08-12T07:11:20.035Z,43.26
2022-08-12T07:12:20.036Z,43.46
2022-08-12T07:13:09.768Z,44.08
2022-08-12T07:14:11.953Z,43.94
2022-08-12T07:15:02.006Z,42.93
2022-08-12T07:15:50.544Z,43.60
2022-08-12T07:16:52.686Z,43.54
2022-08-12T07:17:40.862Z,43.39
2022-08-12T07:18:30.242Z,43.16
2022-08-12T07:19:17.440Z,42.38
2022-08-12T07:20:06.930Z,43.16
2022-08-12T07:20:54.124Z,43.50
2022-08-12T07:21:59.668Z,42.54
2022-08-12T07:22:49.887Z,42.79
2022-08-12T07:23:39.173Z,42.75
2022-08-12T07:24:26.457Z,42.69
2022-08-12T07:25:41.242Z,42.29
2022-08-12T07:26:29.604Z,41.87
2022-08-12T07:27:17.594Z,41.06
2022-08-12T07:28:16.254Z,40.86
2022-08-12T07:29:05.163Z,41.14
2022-08-12T07:29:57.940Z,41.12
2022-08-12T07:30:53.614Z,40.66
2022-08-12T07:31:41.006Z,41.32
2022-08-12T07:32:29.575Z,41.74
2022-08-12T07:33:17.285Z,41.75
2022-08-12T07:34:05.635Z,41.85
2022-08-12T07:34:54.795Z,42.30
2022-08-12T07:35:48.442Z,41.61
2022-08-12T07:36:35.630Z,42.43
2022-08-12T07:37:22.745Z,43.44
2022-08-12T07:38:33.824Z,43.03
2022-08-12T07:39:20.889Z,42.36
2022-08-12T07:40:11.883Z,42.54
2022-08-12T07:41:05.804Z,42.86
2022-08-12T07:41:52.594Z,42.88
2022-08-12T07:42:41.190Z,42.07
2022-08-12T07:43:28.428Z,41.85
2022-08-12T07:44:15.675Z,42.11
2022-08-12T07:45:04.914Z,42.99
2022-08-12T07:45:53.509Z,43.39
2022-08-12T07:46:43.419Z,43.11
2022-08-12T07:47:31.095Z,43.39
2022-08-12T07:48:18.084Z,42.28
2022-08-12T07:49:07.414Z,42.83
2022-08-12T07:50:04.183Z,42.31
2022-08-12T07:50:53.564Z,42.43
2022-08-12T07:51:42.376Z,42.77
2022-08-12T07:52:29.574Z,42.60
2022-08-12T07:53:16.613Z,41.75
2022-08-12T07:54:09.445Z,41.92
2022-08-12T07:54:56.503Z,41.95
2022-08-12T07:55:43.654Z,41.73
2022-08-12T07:56:31.524Z,41.56
2022-08-12T07:57:18.464Z,41.52
2022-08-12T07:58:05.788Z,42.18
2022-08-12T07:58:52.730Z,41.95
2022-08-12T07:59:40.264Z,41.78
2022-08-12T08:00:28.478Z,41.90
2022-08-12T08:01:21.508Z,42.33
2022-08-12T08:02:10.160Z,42.26
2022-08-12T08:02:58.874Z,42.19
2022-08-12T08:04:05.267Z,41.24
2022-08-12T08:04:58.251Z,41.11
2022-08-12T08:05:46.694Z,41.68
2022-08-12T08:06:34.154Z,42.55
2022-08-12T08:07:21.804Z,42.55
2022-08-12T08:08:21.130Z,42.51
2022-08-12T08:09:10.254Z,41.89
2022-08-12T08:10:00.602Z,41.78
2022-08-12T08:10:48.099Z,41.91
2022-08-12T08:11:53.863Z,42.05
2022-08-12T08:12:58.355Z,41.82
2022-08-12T08:13:46.204Z,41.71
2022-08-12T08:14:33.206Z,41.67
2022-08-12T08:15:21.003Z,41.70
2022-08-12T08:16:08.464Z,41.63
2022-08-12T08:16:59.148Z,41.63
2022-08-12T08:18:02.846Z,41.81
2022-08-12T08:18:49.828Z,41.46
2022-08-12T08:20:03.105Z,41.44
2022-08-12T08:20:45.829Z,41.48
2022-08-12T08:21:35.644Z,41.92
2022-08-12T08:22:33.461Z,41.17
2022-08-12T08:23:56.372Z,40.98
2022-08-12T08:24:45.835Z,41.27
2022-08-12T08:25:36.026Z,41.80
2022-08-12T08:26:25.375Z,42.23
2022-08-12T08:27:12.484Z,41.12
2022-08-12T08:28:04.066Z,41.05
2022-08-12T08:28:50.875Z,40.84
2022-08-12T08:29:37.955Z,41.23
2022-08-12T08:30:24.874Z,41.64
2022-08-12T08:31:14.460Z,41.90
2022-08-12T08:32:01.887Z,41.71
2022-08-12T08:32:48.963Z,40.71
2022-08-12T08:34:04.761Z,40.76
2022-08-12T08:34:52.986Z,40.52
2022-08-12T08:35:46.802Z,40.65
2022-08-12T08:36:34.545Z,40.98
2022-08-12T08:37:21.433Z,40.95
2022-08-12T08:38:14.786Z,41.28
2022-08-12T08:39:24.951Z,41.22
2022-08-12T08:40:31.116Z,41.54
2022-08-12T08:42:16.429Z,41.38
2022-08-12T08:42:50.817Z,41.42
2022-08-12T08:43:44.667Z,42.03
2022-08-12T08:44:32.408Z,41.03
2022-08-12T08:45:19.545Z,41.29
2022-08-12T08:46:06.454Z,41.38
2022-08-12T08:46:55.842Z,41.71
2022-08-12T08:47:49.564Z,41.14
2022-08-12T08:48:36.573Z,40.53
2022-08-12T08:49:23.866Z,40.24
2022-08-12T08:50:11.386Z,40.18
2022-08-12T08:51:04.730Z,40.67
2022-08-12T08:51:52.435Z,40.54
2022-08-12T08:52:40.982Z,40.01
2022-08-12T08:53:28.007Z,40.05
2022-08-12T08:54:15.355Z,40.45
2022-08-12T08:55:02.246Z,39.62
2022-08-12T08:56:04.547Z,40.09
2022-08-12T08:56:52.529Z,39.90
2022-08-12T08:57:43.762Z,40.16
2022-08-12T08:58:31.394Z,40.28
2022-08-12T08:59:19.645Z,40.35
2022-08-12T09:00:07.525Z,40.52
2022-08-12T09:00:56.494Z,39.91
2022-08-12T09:01:44.627Z,39.59
2022-08-12T09:02:31.908Z,39.93
2022-08-12T09:05:09.196Z,40.29
2022-08-12T09:05:14.398Z,40.99
2022-08-12T09:06:01.723Z,40.25
2022-08-12T09:06:53.525Z,40.38
2022-08-12T09:07:58.863Z,39.69
2022-08-12T09:08:52.518Z,40.32
2022-08-12T09:10:02.128Z,39.92
2022-08-12T09:10:47.284Z,38.86
2022-08-12T09:12:11.870Z,38.94
2022-08-12T09:14:29.467Z,39.17
2022-08-12T09:16:24.405Z,39.40
2022-08-12T09:17:14.232Z,39.58
2022-08-12T09:18:09.530Z,40.02
2022-08-12T09:18:56.442Z,40.12
2022-08-12T09:19:43.433Z,38.96
2022-08-12T09:20:33.776Z,38.80
2022-08-12T09:22:29.397Z,39.38
2022-08-12T09:23:58.431Z,39.67
2022-08-12T09:24:27.834Z,39.34
2022-08-12T09:25:25.306Z,39.30
2022-08-12T09:26:13.051Z,39.28
2022-08-12T09:26:59.894Z,38.58
2022-08-12T09:28:04.342Z,38.82
2022-08-12T09:28:54.076Z,38.46
2022-08-12T09:30:09.851Z,38.69
2022-08-12T09:30:51.344Z,38.54
2022-08-12T09:32:05.812Z,38.88
2022-08-12T09:33:03.816Z,38.32
2022-08-12T09:34:28.118Z,37.99
2022-08-12T09:34:59.748Z,38.36
2022-08-12T09:35:46.990Z,37.94
2022-08-12T09:37:00.742Z,37.84
2022-08-12T09:37:58.092Z,37.97
2022-08-12T09:38:58.567Z,37.38
2022-08-12T09:40:06.051Z,38.03
2022-08-12T09:41:02.233Z,37.97
2022-08-12T09:42:40.334Z,37.56
2022-08-12T09:43:53.930Z,37.78
2022-08-12T09:45:18.023Z,38.04
2022-08-12T09:46:20.311Z,38.16
2022-08-12T09:47:10.476Z,38.29
2022-08-12T09:48:00.377Z,37.96
2022-08-12T09:48:56.253Z,37.58
2022-08-12T09:49:43.952Z,36.73
2022-08-12T09:50:31.783Z,36.87
2022-08-12T09:51:22.491Z,36.94
2022-08-12T09:52:12.073Z,37.13
2022-08-12T09:54:32.826Z,37.40
2022-08-12T09:54:33.054Z,37.64
2022-08-12T09:56:05.294Z,37.52
2022-08-12T09:56:59.778Z,37.24
2022-08-12T09:58:44.565Z,36.75
2022-08-12T09:59:00.096Z,36.65
2022-08-12T10:00:15.153Z,37.00
2022-08-12T10:01:14.706Z,36.73
2022-08-12T10:02:43.341Z,36.66
2022-08-12T10:03:32.174Z,36.96
2022-08-12T10:04:19.786Z,35.51
2022-08-12T10:05:13.169Z,37.21
2022-08-12T10:06:26.532Z,36.79
2022-08-12T10:07:23.039Z,36.06
2022-08-12T10:08:16.638Z,36.11
2022-08-12T10:09:08.591Z,35.66
2022-08-12T10:09:57.938Z,36.38
2022-08-12T10:11:07.936Z,36.16
2022-08-12T10:12:13.904Z,36.16
2022-08-12T10:13:34.350Z,36.34
2022-08-12T10:14:34.945Z,36.02
2022-08-12T10:16:02.774Z,36.39
2022-08-12T10:16:39.283Z,35.72
2022-08-12T10:17:26.545Z,35.29
2022-08-12T10:18:13.785Z,35.50
2022-08-12T10:19:06.182Z,34.26
2022-08-12T10:20:05.235Z,34.90
2022-08-12T10:20:57.825Z,34.83
2022-08-12T10:21:45.274Z,35.79
2022-08-12T10:22:40.193Z,36.36
2022-08-12T10:23:40.113Z,36.75
2022-08-12T10:24:27.606Z,36.47
2022-08-12T10:26:36.751Z,36.99
2022-08-12T10:26:59.997Z,37.07
2022-08-12T10:28:24.661Z,36.76
2022-08-12T10:30:40.769Z,37.50
2022-08-12T10:30:43.916Z,35.46
2022-08-12T10:32:19.767Z,36.21
2022-08-12T10:32:44.813Z,36.61
2022-08-12T10:33:43.593Z,36.26
2022-08-12T10:34:53.183Z,35.88
2022-08-12T10:35:44.126Z,35.42
2022-08-12T10:36:40.104Z,35.53
2022-08-12T10:38:35.354Z,34.52
2022-08-12T10:38:41.329Z,34.94
2022-08-12T10:40:03.290Z,34.60
2022-08-12T10:41:01.050Z,34.56
2022-08-12T10:42:09.816Z,34.85
2022-08-12T10:43:16.727Z,35.24
2022-08-12T10:44:05.425Z,34.73
2022-08-12T10:44:53.865Z,34.73
2022-08-12T10:45:42.503Z,34.74
2022-08-12T10:46:33.354Z,35.33
2022-08-12T10:47:25.962Z,35.28
2022-08-12T10:48:34.121Z,34.40
2022-08-12T10:50:03.078Z,34.69
2022-08-12T10:51:01.091Z,34.80
2022-08-12T10:52:04.972Z,34.68
2022-08-12T10:52:52.635Z,34.56
2022-08-12T10:53:46.749Z,34.66
2022-08-12T10:54:33.850Z,34.52
2022-08-12T10:55:23.285Z,34.50
2022-08-12T10:56:16.274Z,34.55
2022-08-12T10:57:03.127Z,34.80
2022-08-12T10:58:14.690Z,34.59
2022-08-12T10:58:58.331Z,35.00
2022-08-12T11:00:30.676Z,35.06
2022-08-12T11:01:26.274Z,35.12
2022-08-12T11:04:15.892Z,34.02
2022-08-12T11:04:23.648Z,35.75
2022-08-12T11:04:27.909Z,34.20
2022-08-12T11:07:06.193Z,34.21
2022-08-12T11:07:06.905Z,33.88
2022-08-12T11:08:34.387Z,33.73
2022-08-12T11:08:42.193Z,33.69
2022-08-12T11:09:55.835Z,33.66
2022-08-12T11:10:45.689Z,32.83
2022-08-12T11:12:36.189Z,32.65
2022-08-12T11:12:59.120Z,33.01
2022-08-12T11:13:48.734Z,32.77
2022-08-12T11:14:49.558Z,33.37
2022-08-12T11:16:04.321Z,33.22
2022-08-12T11:17:33.591Z,32.95
2022-08-12T11:17:54.831Z,33.03
2022-08-12T11:18:43.356Z,32.75
2022-08-12T11:19:34.921Z,33.43
2022-08-12T11:20:30.936Z,34.12
2022-08-12T11:21:18.147Z,33.16
2022-08-12T11:22:07.595Z,32.66
2022-08-12T11:22:59.908Z,33.20
2022-08-12T11:23:53.519Z,33.46
2022-08-12T11:24:40.875Z,33.06
2022-08-12T11:25:56.697Z,33.43
2022-08-12T11:26:45.239Z,33.03
2022-08-12T11:27:32.425Z,33.36
2022-08-12T11:28:33.399Z,33.06
2022-08-12T11:29:23.894Z,33.41
2022-08-12T11:30:31.307Z,32.95
2022-08-12T11:31:18.233Z,32.94
2022-08-12T11:32:05.635Z,33.17
2022-08-12T11:32:52.547Z,32.95
2022-08-12T11:34:05.859Z,32.72
2022-08-12T11:34:53.140Z,32.46
2022-08-12T11:35:42.959Z,32.47
2022-08-12T11:36:30.542Z,32.32
2022-08-12T11:37:25.699Z,32.40
2022-08-12T11:38:13.625Z,32.38
2022-08-12T11:39:07.331Z,31.74
2022-08-12T11:40:53.715Z,32.66
2022-08-12T11:41:40.791Z,32.21
2022-08-12T11:42:32.477Z,32.95
2022-08-12T11:43:20.526Z,33.08
2022-08-12T11:44:36.612Z,33.28
2022-08-12T11:45:16.623Z,33.00
2022-08-12T11:46:04.132Z,32.84
2022-08-12T11:46:53.197Z,32.21
2022-08-12T11:47:40.609Z,32.31
2022-08-12T11:48:27.695Z,32.31
2022-08-12T11:49:34.649Z,32.07
2022-08-12T11:50:25.703Z,32.09
2022-08-12T11:51:19.911Z,32.02
2022-08-12T11:52:17.539Z,32.17
2022-08-12T11:53:58.904Z,32.49
2022-08-12T11:54:21.467Z,32.90
2022-08-12T11:55:09.204Z,32.02
2022-08-12T11:56:02.319Z,31.59